createdAt,value
2018-03-25T00:02:06.483Z,8.30
2018-03-25T00:04:33.930Z,8.30
2018-03-25T00:07:01.353Z,8.20
2018-03-25T00:09:28.805Z,8.20
2018-03-25T00:11:56.224Z,8.20
2018-03-25T00:14:23.658Z,8.10
2018-03-25T00:16:51.097Z,8.10
2018-03-25T00:19:19.301Z,8.10
2018-03-25T00:21:46.997Z,8.10
2018-03-25T00:24:14.481Z,8.00
2018-03-25T00:26:41.917Z,8.10
2018-03-25T00:29:09.378Z,8.10
2018-03-25T00:31:36.799Z,8.10
2018-03-25T00:34:04.295Z,8.10
2018-03-25T00:36:31.721Z,8.10
2018-03-25T00:38:59.165Z,8.10
2018-03-25T00:41:26.580Z,8.00
2018-03-25T00:43:54.784Z,7.90
2018-03-25T00:46:22.229Z,7.90
2018-03-25T00:48:50.450Z,7.90
2018-03-25T00:51:17.898Z,7.90
2018-03-25T00:53:45.342Z,7.90
2018-03-25T00:56:13.364Z,7.80
2018-03-25T00:58:40.834Z,7.80
2018-03-25T01:01:12.860Z,7.80
2018-03-25T01:03:40.305Z,7.80
2018-03-25T01:06:08.408Z,7.60
2018-03-25T01:08:35.845Z,7.50
2018-03-25T01:11:03.298Z,7.50
2018-03-25T01:13:30.731Z,7.40
2018-03-25T01:16:18.863Z,7.60
2018-03-25T01:18:47.056Z,7.50
2018-03-25T01:21:14.493Z,7.50
2018-03-25T01:23:41.926Z,7.50
2018-03-25T01:26:09.352Z,7.50
2018-03-25T01:28:36.808Z,7.50
2018-03-25T01:31:04.258Z,7.50
2018-03-25T01:33:31.703Z,7.50
2018-03-25T01:35:59.133Z,7.40
2018-03-25T01:38:26.598Z,7.40
2018-03-25T01:40:54.030Z,7.50
2018-03-25T01:43:22.322Z,7.40
2018-03-25T01:45:50.509Z,7.40
2018-03-25T01:48:18.578Z,7.40
2018-03-25T01:50:46.018Z,7.30
2018-03-25T01:53:14.228Z,7.40
2018-03-25T01:55:41.683Z,7.30
2018-03-25T01:58:09.098Z,7.30
2018-03-25T02:00:36.525Z,7.40
2018-03-25T02:03:03.959Z,7.30
2018-03-25T02:05:31.398Z,7.30
2018-03-25T02:07:58.838Z,7.20
2018-03-25T02:10:27.060Z,7.10
2018-03-25T02:12:54.525Z,7.10
2018-03-25T02:15:21.961Z,7.10
2018-03-25T02:17:49.384Z,7.20
2018-03-25T02:20:17.894Z,7.10
2018-03-25T02:22:45.336Z,7.10
2018-03-25T02:25:13.562Z,7.10
2018-03-25T02:27:41.024Z,7.10
2018-03-25T02:30:09.354Z,7.00
2018-03-25T02:32:36.810Z,7.00
2018-03-25T02:35:04.260Z,6.90
2018-03-25T02:37:32.516Z,6.90
2018-03-25T02:39:59.921Z,6.90
2018-03-25T02:42:28.115Z,6.80
2018-03-25T02:44:55.566Z,6.80
2018-03-25T02:47:23.012Z,6.80
2018-03-25T02:49:50.436Z,6.70
2018-03-25T02:52:18.635Z,6.80
2018-03-25T02:54:46.095Z,6.70
2018-03-25T02:57:13.559Z,6.80
2018-03-25T02:59:41.016Z,6.80
2018-03-25T03:02:08.460Z,6.80
2018-03-25T03:04:35.928Z,6.80
2018-03-25T03:07:03.358Z,6.80
2018-03-25T03:09:31.581Z,7.10
2018-03-25T03:11:59.416Z,7.10
2018-03-25T03:14:26.858Z,7.20
2018-03-25T03:16:55.080Z,7.50
2018-03-25T03:19:22.532Z,7.50
2018-03-25T03:21:49.964Z,7.50
2018-03-25T03:24:17.450Z,7.60
2018-03-25T03:26:44.918Z,7.60
2018-03-25T03:29:12.337Z,7.60
2018-03-25T03:31:39.788Z,7.50
2018-03-25T03:34:07.208Z,7.40
2018-03-25T03:36:34.656Z,7.20
2018-03-25T03:39:02.085Z,7.10
2018-03-25T03:41:29.541Z,7.10
2018-03-25T03:43:56.957Z,7.00
2018-03-25T03:46:25.343Z,6.80
2018-03-25T03:48:53.545Z,6.80
2018-03-25T03:51:20.989Z,6.80
2018-03-25T03:53:48.427Z,6.70
2018-03-25T03:56:17.554Z,6.70
2018-03-25T03:58:44.977Z,6.60
2018-03-25T04:01:13.220Z,6.60
2018-03-25T04:03:41.093Z,6.60
2018-03-25T04:06:08.543Z,6.50
2018-03-25T04:08:36.738Z,6.50
2018-03-25T04:11:04.180Z,6.40
2018-03-25T04:13:31.633Z,6.40
2018-03-25T04:15:59.126Z,6.40
2018-03-25T04:18:27.321Z,6.20
2018-03-25T04:20:54.763Z,6.20
2018-03-25T04:23:22.986Z,6.20
2018-03-25T04:25:50.401Z,6.20
2018-03-25T04:28:17.873Z,6.20
2018-03-25T04:30:45.289Z,6.10
2018-03-25T04:33:12.749Z,6.10
2018-03-25T04:35:40.193Z,6.10
2018-03-25T04:38:07.665Z,6.10
2018-03-25T04:40:35.098Z,6.10
2018-03-25T04:43:02.586Z,6.00
2018-03-25T04:45:30.784Z,5.90
2018-03-25T04:47:58.213Z,5.90
2018-03-25T04:50:25.666Z,5.90
2018-03-25T04:52:53.110Z,6.00
2018-03-25T04:55:20.565Z,5.90
2018-03-25T04:57:48.005Z,5.90
2018-03-25T05:00:16.363Z,5.80
2018-03-25T05:02:43.788Z,5.90
2018-03-25T05:05:11.984Z,5.70
2018-03-25T05:07:39.458Z,5.70
2018-03-25T05:10:06.923Z,5.80
2018-03-25T05:12:34.372Z,5.80
2018-03-25T05:15:01.803Z,5.80
2018-03-25T05:17:30.015Z,5.70
2018-03-25T05:19:57.455Z,5.70
2018-03-25T05:22:24.920Z,5.70
2018-03-25T05:24:52.369Z,5.70
2018-03-25T05:27:19.793Z,5.70
2018-03-25T05:29:47.991Z,5.80
2018-03-25T05:32:15.421Z,5.80
2018-03-25T05:34:43.610Z,5.90
2018-03-25T05:37:11.872Z,5.90
2018-03-25T05:39:40.099Z,6.00
2018-03-25T05:42:08.450Z,6.00
2018-03-25T05:44:35.880Z,6.00
2018-03-25T05:47:03.353Z,5.90
2018-03-25T05:49:31.557Z,6.10
2018-03-25T05:51:58.986Z,6.00
2018-03-25T05:54:27.208Z,6.20
2018-03-25T05:56:54.672Z,6.20
2018-03-25T05:59:22.107Z,6.20
2018-03-25T06:01:49.554Z,6.30
2018-03-25T06:04:17.452Z,6.40
2018-03-25T06:06:44.897Z,6.60
2018-03-25T06:09:12.354Z,6.60
2018-03-25T06:11:39.802Z,6.70
2018-03-25T06:14:07.228Z,6.80
2018-03-25T06:16:35.429Z,7.10
2018-03-25T06:19:02.918Z,7.00
2018-03-25T06:21:30.321Z,7.20
2018-03-25T06:23:58.544Z,7.40
2018-03-25T06:26:26.036Z,7.30
2018-03-25T06:28:53.470Z,7.80
2018-03-25T06:31:20.905Z,8.10
2018-03-25T06:33:48.344Z,8.50
2018-03-25T06:36:15.800Z,8.90
2018-03-25T06:38:43.281Z,9.30
2018-03-25T06:41:10.732Z,9.80
2018-03-25T06:43:38.176Z,10.20
2018-03-25T06:46:05.625Z,10.50
2018-03-25T06:48:33.065Z,11.00
2018-03-25T06:51:01.295Z,11.90
2018-03-25T06:53:28.728Z,11.90
2018-03-25T06:55:56.186Z,12.40
2018-03-25T06:58:23.642Z,12.80
2018-03-25T07:00:51.950Z,13.00
2018-03-25T07:03:19.378Z,13.10
2018-03-25T07:05:46.823Z,13.20
2018-03-25T07:08:15.040Z,13.40
2018-03-25T07:10:42.494Z,13.40
2018-03-25T07:13:09.941Z,13.60
2018-03-25T07:15:38.147Z,14.20
2018-03-25T07:18:05.585Z,14.20
2018-03-25T07:20:33.036Z,14.60
2018-03-25T07:23:00.491Z,14.60
2018-03-25T07:25:27.946Z,14.60
2018-03-25T07:27:55.372Z,14.40
2018-03-25T07:30:22.825Z,14.50
2018-03-25T07:32:51.032Z,14.90
2018-03-25T07:35:18.459Z,14.90
2018-03-25T07:37:46.671Z,14.60
2018-03-25T07:40:14.110Z,14.60
2018-03-25T07:42:41.549Z,14.70
2018-03-25T07:45:09.749Z,15.60
2018-03-25T07:47:37.198Z,15.60
2018-03-25T07:50:04.736Z,16.00
2018-03-25T07:52:32.436Z,16.40
2018-03-25T07:54:59.845Z,16.70
2018-03-25T07:57:28.067Z,18.10
2018-03-25T07:59:55.498Z,18.00
2018-03-25T08:02:23.701Z,18.20
2018-03-25T08:04:51.136Z,18.10
2018-03-25T08:07:18.605Z,17.70
2018-03-25T08:09:46.024Z,17.50
2018-03-25T08:12:14.226Z,18.10
2018-03-25T08:14:41.669Z,18.10
2018-03-25T08:17:09.870Z,18.50
2018-03-25T08:19:37.357Z,18.50
2018-03-25T08:22:04.808Z,18.70
2018-03-25T08:24:32.289Z,18.70
2018-03-25T08:26:59.705Z,18.60
2018-03-25T08:29:27.145Z,18.00
2018-03-25T08:31:54.569Z,18.30
2018-03-25T08:34:22.028Z,18.60
2018-03-25T08:36:49.461Z,19.00
2018-03-25T08:39:17.850Z,18.90
2018-03-25T08:41:45.280Z,19.10
2018-03-25T08:44:12.749Z,19.70
2018-03-25T08:46:40.173Z,20.40
2018-03-25T08:49:07.672Z,21.00
2018-03-25T08:51:35.110Z,21.50
2018-03-25T08:54:02.581Z,22.10
2018-03-25T08:56:30.018Z,22.50
2018-03-25T08:58:57.454Z,22.50
2018-03-25T09:01:24.893Z,22.50
2018-03-25T09:03:52.362Z,23.10
2018-03-25T09:06:20.571Z,23.80
2018-03-25T09:08:48.018Z,23.70
2018-03-25T09:11:15.449Z,24.80
2018-03-25T09:13:43.653Z,25.40
2018-03-25T09:16:11.856Z,25.30
2018-03-25T09:18:39.293Z,26.40
2018-03-25T09:21:06.738Z,26.60
2018-03-25T09:23:34.177Z,27.40
2018-03-25T09:26:01.614Z,28.40
2018-03-25T09:28:29.821Z,28.70
2018-03-25T09:30:57.255Z,28.70
2018-03-25T09:33:25.465Z,29.50
2018-03-25T09:35:52.906Z,29.50
2018-03-25T09:38:21.232Z,29.80
2018-03-25T09:40:48.665Z,30.20
2018-03-25T09:43:16.113Z,30.20
2018-03-25T09:45:43.543Z,29.90
2018-03-25T09:48:11.754Z,31.00
2018-03-25T09:50:39.193Z,30.90
2018-03-25T09:53:06.641Z,30.60
2018-03-25T09:55:34.075Z,29.60
2018-03-25T09:58:02.308Z,31.50
2018-03-25T10:00:29.757Z,31.40
2018-03-25T10:02:58.973Z,32.20
2018-03-25T10:05:26.414Z,32.60
2018-03-25T10:07:53.869Z,31.30
2018-03-25T10:10:21.332Z,31.30
2018-03-25T10:12:49.014Z,31.60
2018-03-25T10:15:16.448Z,30.80
2018-03-25T10:17:43.899Z,31.30
2018-03-25T10:20:11.340Z,31.80
2018-03-25T10:22:39.535Z,32.10
2018-03-25T10:25:07.793Z,32.10
2018-03-25T10:27:35.242Z,33.20
2018-03-25T10:30:03.456Z,33.40
2018-03-25T10:32:30.888Z,33.30
2018-03-25T10:34:58.329Z,32.60
2018-03-25T10:37:26.529Z,33.30
2018-03-25T10:39:53.972Z,33.30
2018-03-25T10:42:21.408Z,32.30
2018-03-25T10:44:49.646Z,31.00
2018-03-25T10:47:17.998Z,30.90
2018-03-25T10:49:45.434Z,32.10
2018-03-25T10:52:12.868Z,32.70
2018-03-25T10:54:41.073Z,31.90
2018-03-25T10:57:08.496Z,31.90
2018-03-25T10:59:35.933Z,32.10
2018-03-25T11:02:03.377Z,31.60
2018-03-25T11:04:30.817Z,31.80
2018-03-25T11:06:58.258Z,32.60
2018-03-25T11:09:25.693Z,33.60
2018-03-25T11:11:53.889Z,33.80
2018-03-25T11:14:21.325Z,33.80
2018-03-25T11:16:49.531Z,33.00
2018-03-25T11:19:17.932Z,33.00
2018-03-25T11:21:45.626Z,33.30
2018-03-25T11:24:13.872Z,33.90
2018-03-25T11:26:41.327Z,33.90
2018-03-25T11:29:08.777Z,32.80
2018-03-25T11:31:36.220Z,31.30
2018-03-25T11:34:04.905Z,28.50
2018-03-25T11:36:32.371Z,28.40
2018-03-25T11:38:59.804Z,26.60
2018-03-25T11:41:28.025Z,23.70
2018-03-25T11:43:55.470Z,23.60
2018-03-25T11:46:22.923Z,23.30
2018-03-25T11:48:50.344Z,23.10
2018-03-25T11:51:18.109Z,23.20
2018-03-25T11:53:46.315Z,24.10
2018-03-25T11:56:13.777Z,24.10
2018-03-25T11:58:41.217Z,26.00
2018-03-25T12:01:09.430Z,29.30
2018-03-25T12:03:36.906Z,29.20
2018-03-25T12:06:04.337Z,30.10
2018-03-25T12:08:31.812Z,31.10
2018-03-25T12:10:59.348Z,30.70
2018-03-25T12:13:26.779Z,30.30
2018-03-25T12:15:54.998Z,28.70
2018-03-25T12:18:22.488Z,28.70
2018-03-25T12:20:49.938Z,27.50
2018-03-25T12:23:18.190Z,26.40
2018-03-25T12:25:45.636Z,25.20
2018-03-25T12:28:13.335Z,24.20
2018-03-25T12:30:40.756Z,24.10
2018-03-25T12:33:08.198Z,25.70
2018-03-25T12:35:35.658Z,26.60
2018-03-25T12:38:03.109Z,28.10
2018-03-25T12:40:30.977Z,29.10
2018-03-25T12:42:58.414Z,30.20
2018-03-25T12:45:26.627Z,30.70
2018-03-25T12:47:54.074Z,30.70
2018-03-25T12:50:21.516Z,30.80
2018-03-25T12:52:49.849Z,30.20
2018-03-25T12:55:18.222Z,28.90
2018-03-25T12:57:45.682Z,27.50
2018-03-25T13:00:13.123Z,26.50
2018-03-25T13:02:40.606Z,25.80
2018-03-25T13:05:08.045Z,25.10
2018-03-25T13:07:35.474Z,24.30
2018-03-25T13:10:02.910Z,23.90
2018-03-25T13:12:30.345Z,23.50
2018-03-25T13:14:57.826Z,23.00
2018-03-25T13:17:26.017Z,22.40
2018-03-25T13:19:53.465Z,22.40
2018-03-25T13:22:20.910Z,22.40
2018-03-25T13:24:48.360Z,22.00
2018-03-25T13:27:16.563Z,21.30
2018-03-25T13:29:44.006Z,21.30
2018-03-25T13:32:12.218Z,21.20
2018-03-25T13:34:39.728Z,21.20
2018-03-25T13:37:07.161Z,21.30
2018-03-25T13:39:34.610Z,21.30
2018-03-25T13:42:02.097Z,21.40
2018-03-25T13:44:29.520Z,21.10
2018-03-25T13:46:56.962Z,21.30
2018-03-25T13:49:24.446Z,21.20
2018-03-25T13:51:51.887Z,21.50
2018-03-25T13:54:19.333Z,21.70
2018-03-25T13:56:46.784Z,21.80
2018-03-25T13:59:14.212Z,21.80
2018-03-25T14:01:42.409Z,22.10
2018-03-25T14:04:10.854Z,22.10
2018-03-25T14:06:39.061Z,22.30
2018-03-25T14:09:06.513Z,22.30
2018-03-25T14:11:33.962Z,22.40
2018-03-25T14:14:02.152Z,22.30
2018-03-25T14:16:29.605Z,22.20
2018-03-25T14:18:57.043Z,22.40
2018-03-25T14:21:25.240Z,21.50
2018-03-25T14:23:52.673Z,21.40
2018-03-25T14:26:20.905Z,20.50
2018-03-25T14:28:48.329Z,20.50
2018-03-25T14:31:15.764Z,20.50
2018-03-25T14:33:43.971Z,20.00
2018-03-25T14:36:11.410Z,20.00
2018-03-25T14:38:38.861Z,19.90
2018-03-25T14:41:07.095Z,19.70
2018-03-25T14:43:34.582Z,19.70
2018-03-25T14:46:02.018Z,19.60
2018-03-25T14:48:29.462Z,19.70
2018-03-25T14:50:56.903Z,19.60
2018-03-25T14:53:24.329Z,19.80
2018-03-25T14:55:51.789Z,19.80
2018-03-25T14:58:19.982Z,19.90
2018-03-25T15:00:47.401Z,19.90
2018-03-25T15:03:15.646Z,20.20
2018-03-25T15:05:43.845Z,20.30
2018-03-25T15:08:12.063Z,20.10
2018-03-25T15:10:39.517Z,20.10
2018-03-25T15:13:06.974Z,20.20
2018-03-25T15:15:34.382Z,19.90
2018-03-25T15:18:01.916Z,19.90
2018-03-25T15:20:29.273Z,19.90
2018-03-25T15:22:56.728Z,19.90
2018-03-25T15:25:24.157Z,19.90
2018-03-25T15:27:51.608Z,19.90
2018-03-25T15:30:19.805Z,19.80
2018-03-25T15:32:47.269Z,19.80
2018-03-25T15:35:14.731Z,19.40
2018-03-25T15:37:42.169Z,19.30
2018-03-25T15:40:09.603Z,19.00
2018-03-25T15:42:37.838Z,18.90
2018-03-25T15:45:05.274Z,18.90
2018-03-25T15:47:32.734Z,19.00
2018-03-25T15:50:00.169Z,18.90
2018-03-25T15:52:27.613Z,18.70
2018-03-25T15:54:55.805Z,18.50
2018-03-25T15:57:23.261Z,18.50
2018-03-25T15:59:50.697Z,18.40
2018-03-25T16:02:18.685Z,18.30
2018-03-25T16:04:46.107Z,18.20
2018-03-25T16:07:13.539Z,17.90
2018-03-25T16:09:40.994Z,17.70
2018-03-25T16:12:08.431Z,17.50
2018-03-25T16:14:35.860Z,17.70
2018-03-25T16:17:04.061Z,17.90
2018-03-25T16:19:31.494Z,17.90
2018-03-25T16:21:58.996Z,17.90
2018-03-25T16:24:27.169Z,17.90
2018-03-25T16:26:54.608Z,17.90
2018-03-25T16:29:22.042Z,17.60
2018-03-25T16:31:49.545Z,17.60
2018-03-25T16:34:16.991Z,17.70
2018-03-25T16:36:44.441Z,17.80
2018-03-25T16:39:11.885Z,17.90
2018-03-25T16:41:39.330Z,17.80
2018-03-25T16:44:07.553Z,17.50
2018-03-25T16:46:34.965Z,17.50
2018-03-25T16:49:02.453Z,17.20
2018-03-25T16:51:29.882Z,17.40
2018-03-25T16:53:57.320Z,17.20
2018-03-25T16:56:25.669Z,17.20
2018-03-25T16:58:53.100Z,17.10
2018-03-25T17:01:20.535Z,16.90
2018-03-25T17:03:47.976Z,17.00
2018-03-25T17:06:15.407Z,16.70
2018-03-25T17:08:42.865Z,16.60
2018-03-25T17:11:10.307Z,16.60
2018-03-25T17:13:37.753Z,16.80
2018-03-25T17:16:05.201Z,16.90
2018-03-25T17:18:33.563Z,16.90
2018-03-25T17:21:00.965Z,16.90
2018-03-25T17:23:28.425Z,16.90
2018-03-25T17:25:55.865Z,16.90
2018-03-25T17:28:23.400Z,17.00
2018-03-25T17:30:50.830Z,16.80
2018-03-25T17:33:18.972Z,16.70
2018-03-25T17:35:49.102Z,16.70
2018-03-25T17:38:18.751Z,16.80
2018-03-25T17:40:46.178Z,16.90
2018-03-25T17:43:14.404Z,16.40
2018-03-25T17:45:41.865Z,16.40
2018-03-25T17:48:09.293Z,16.50
2018-03-25T17:50:36.761Z,16.50
2018-03-25T17:53:04.182Z,16.60
2018-03-25T17:55:31.618Z,16.70
2018-03-25T17:57:59.069Z,16.50
2018-03-25T18:00:26.506Z,16.50
2018-03-25T18:02:53.961Z,16.50
2018-03-25T18:05:21.408Z,16.60
2018-03-25T18:07:48.838Z,16.60
2018-03-25T18:10:17.039Z,16.50
2018-03-25T18:12:45.299Z,16.50
2018-03-25T18:15:12.769Z,16.50
2018-03-25T18:17:40.214Z,16.50
2018-03-25T18:20:07.666Z,16.60
2018-03-25T18:22:35.101Z,16.50
2018-03-25T18:25:03.382Z,16.50
2018-03-25T18:27:30.869Z,16.40
2018-03-25T18:29:58.322Z,16.50
2018-03-25T18:32:25.787Z,16.50
2018-03-25T18:34:53.233Z,16.50
2018-03-25T18:37:20.709Z,16.50
2018-03-25T18:39:48.911Z,16.50
2018-03-25T18:42:16.350Z,16.40
2018-03-25T18:44:43.789Z,16.50
2018-03-25T18:47:11.242Z,16.40
2018-03-25T18:49:38.701Z,16.50
2018-03-25T18:52:06.145Z,16.30
2018-03-25T18:54:34.365Z,16.40
2018-03-25T18:57:01.798Z,16.40
2018-03-25T18:59:29.241Z,16.50
2018-03-25T19:01:56.669Z,16.50
2018-03-25T19:04:24.134Z,16.50
2018-03-25T19:06:51.594Z,16.40
2018-03-25T19:09:21.249Z,16.50
2018-03-25T19:11:48.845Z,16.50
2018-03-25T19:14:16.293Z,16.50
2018-03-25T19:16:43.763Z,16.50
2018-03-25T19:19:11.201Z,16.40
2018-03-25T19:21:38.645Z,16.30
2018-03-25T19:24:06.106Z,16.30
2018-03-25T19:26:33.541Z,16.40
2018-03-25T19:29:00.993Z,16.40
2018-03-25T19:31:28.455Z,16.40
2018-03-25T19:33:55.913Z,16.30
2018-03-25T19:36:23.353Z,16.30
2018-03-25T19:38:51.558Z,16.30
2018-03-25T19:41:19.189Z,16.30
2018-03-25T19:43:47.406Z,16.30
2018-03-25T19:46:14.841Z,16.20
2018-03-25T19:48:42.287Z,16.30
2018-03-25T19:51:10.002Z,16.30
2018-03-25T19:53:37.433Z,16.30
2018-03-25T19:56:04.887Z,16.30
2018-03-25T19:58:32.345Z,16.30
2018-03-25T20:01:00.319Z,16.30
2018-03-25T20:03:27.758Z,16.20
2018-03-25T20:05:55.200Z,16.20
2018-03-25T20:08:23.448Z,16.20
2018-03-25T20:10:50.924Z,16.10
2018-03-25T20:13:19.267Z,16.20
2018-03-25T20:15:46.724Z,16.10
2018-03-25T20:18:14.144Z,16.10
2018-03-25T20:20:41.589Z,16.10
2018-03-25T20:23:09.793Z,16.10
2018-03-25T20:25:37.242Z,16.00
2018-03-25T20:28:04.759Z,16.10
2018-03-25T20:30:32.119Z,16.00
2018-03-25T20:33:00.398Z,16.00
2018-03-25T20:35:28.606Z,16.00
2018-03-25T20:37:56.046Z,16.00
2018-03-25T20:40:24.338Z,16.00
2018-03-25T20:42:51.786Z,16.00
2018-03-25T20:45:20.070Z,16.00
2018-03-25T20:47:47.530Z,16.00
2018-03-25T20:50:14.980Z,16.00
2018-03-25T20:52:42.423Z,16.00
2018-03-25T20:55:11.226Z,15.90
2018-03-25T20:57:39.425Z,15.80
2018-03-25T21:00:06.901Z,15.80
2018-03-25T21:02:34.368Z,15.80
2018-03-25T21:05:01.788Z,15.60
2018-03-25T21:07:29.205Z,15.50
2018-03-25T21:09:57.409Z,15.60
2018-03-25T21:12:24.848Z,15.60
2018-03-25T21:14:52.364Z,15.50
2018-03-25T21:17:19.785Z,15.60
2018-03-25T21:19:47.223Z,15.60
2018-03-25T21:22:15.452Z,15.60
2018-03-25T21:24:42.937Z,15.60
2018-03-25T21:27:10.397Z,15.60
2018-03-25T21:29:37.842Z,15.70
2018-03-25T21:32:05.270Z,15.60
2018-03-25T21:34:32.714Z,15.60
2018-03-25T21:37:00.150Z,15.60
2018-03-25T21:39:28.456Z,15.60
2018-03-25T21:41:55.895Z,15.60
2018-03-25T21:44:23.382Z,15.60
2018-03-25T21:46:50.810Z,15.60
2018-03-25T21:49:18.246Z,15.60
2018-03-25T21:51:46.500Z,15.40
2018-03-25T21:54:13.952Z,15.40
2018-03-25T21:56:41.892Z,15.50
2018-03-25T21:59:09.409Z,15.40
2018-03-25T22:01:36.840Z,15.40
2018-03-25T22:04:04.287Z,15.30
2018-03-25T22:06:31.744Z,15.20
2018-03-25T22:08:59.157Z,15.20
2018-03-25T22:11:26.636Z,15.10
2018-03-25T22:13:55.041Z,15.00
2018-03-25T22:16:22.490Z,15.00
2018-03-25T22:19:00.793Z,14.90
2018-03-25T22:21:29.069Z,15.10
2018-03-25T22:23:56.510Z,15.10
2018-03-25T22:26:23.990Z,15.20
2018-03-25T22:28:52.701Z,15.20
2018-03-25T22:31:25.203Z,15.20
2018-03-25T22:33:53.414Z,15.10
2018-03-25T22:36:20.890Z,15.10
2018-03-25T22:38:48.366Z,15.10
2018-03-25T22:41:15.818Z,15.00
2018-03-25T22:43:43.273Z,15.00
2018-03-25T22:46:11.478Z,15.00
2018-03-25T22:48:39.695Z,15.00
2018-03-25T22:51:07.163Z,15.00
2018-03-25T22:53:34.584Z,15.00
2018-03-25T22:56:02.197Z,15.00
2018-03-25T22:58:30.441Z,15.00
2018-03-25T23:00:57.901Z,15.00
2018-03-25T23:03:25.359Z,15.00
2018-03-25T23:05:53.157Z,15.00
2018-03-25T23:08:21.379Z,15.00
2018-03-25T23:10:48.861Z,14.90
2018-03-25T23:13:16.370Z,15.00
2018-03-25T23:15:43.841Z,14.90
2018-03-25T23:18:12.050Z,14.90
2018-03-25T23:20:39.518Z,14.90
2018-03-25T23:23:06.948Z,15.00
2018-03-25T23:25:34.862Z,14.90
2018-03-25T23:28:02.422Z,14.80
2018-03-25T23:30:30.042Z,14.90
2018-03-25T23:32:57.583Z,14.90
2018-03-25T23:35:25.772Z,14.80
2018-03-25T23:37:53.225Z,14.70
2018-03-25T23:40:20.676Z,14.80
2018-03-25T23:42:48.877Z,14.70
2018-03-25T23:45:16.315Z,14.70
2018-03-25T23:47:43.744Z,14.60
2018-03-25T23:50:11.958Z,14.80
2018-03-25T23:52:39.408Z,14.80
2018-03-25T23:55:06.853Z,14.80
2018-03-25T23:57:35.111Z,14.60
